ENOC weather

Oseberg C Platform
Norway

Public forecast

Using degrees Celsius for public forecast. Weather courtesy of forecast.io.

Closest aviation weather report (METAR) to Oseberg C Platform

Closest report is Oseberg A Platform, 7.1 nm (13.2 km) SSE. Retrieved 2020/01/18 02:20 UTC (18 minutes ago):

ENOA 180220Z 24027KT 9999 SCT025 BKN050 08/04 Q0999 W///S5

Closest aviation forecast (TAF) to Oseberg C Platform

Closest forecast is Oseberg A Platform, 7.1 nm (13.2 km) SSE. Retrieved 2020-01-18 03:57 UTC (0 seconds ago):

TAF TAF ENOA 180200Z 1803/1903 22030KT 9999 BKN020 TEMPO 1803/1812 SHRA BKN012 FEW015CB BECMG 1803/1806 29030KT TEMPO 1812/1818 4000 SHRAGS BKN015CB BECMG 1814/1817 31040KT PROB30 TEMPO 1900/1903 SHRA SCT015CB